createdAt,value
2018-09-20T00:00:48.158Z,100139.11
2018-09-20T00:03:15.790Z,100136.02
2018-09-20T00:05:43.415Z,100136.54
2018-09-20T00:08:11.115Z,100134.20
2018-09-20T00:10:38.754Z,100131.71
2018-09-20T00:13:06.577Z,100134.04
2018-09-20T00:15:34.279Z,100132.71
2018-09-20T00:18:01.976Z,100124.72
2018-09-20T00:20:29.661Z,100127.38
2018-09-20T00:22:57.302Z,100123.39
2018-09-20T00:25:25.028Z,100131.41
2018-09-20T00:27:52.688Z,100131.38
2018-09-20T00:30:20.414Z,100131.27
2018-09-20T00:32:48.180Z,100128.08
2018-09-20T00:35:15.917Z,100122.80
2018-09-20T00:37:43.636Z,100125.16
2018-09-20T00:40:11.308Z,100119.83
2018-09-20T00:42:38.962Z,100127.48
2018-09-20T00:45:06.718Z,100123.52
2018-09-20T00:47:34.431Z,100127.36
2018-09-20T00:50:07.097Z,100124.88
2018-09-20T00:52:34.824Z,100127.05
2018-09-20T00:55:02.491Z,100128.41
2018-09-20T00:57:30.161Z,100128.08
2018-09-20T00:59:57.888Z,100131.23
2018-09-20T01:02:25.490Z,100128.77
2018-09-20T01:04:53.498Z,100130.42
2018-09-20T01:07:21.122Z,100130.60
2018-09-20T01:09:48.883Z,100128.28
2018-09-20T01:12:16.542Z,100127.78
2018-09-20T01:14:44.260Z,100132.43
2018-09-20T01:17:11.861Z,100132.59
2018-09-20T01:19:39.536Z,100134.43
2018-09-20T01:22:07.286Z,100129.41
2018-09-20T01:24:35.008Z,100132.09
2018-09-20T01:27:02.733Z,100129.75
2018-09-20T01:29:30.410Z,100130.27
2018-09-20T01:31:58.049Z,100127.77
2018-09-20T01:34:25.703Z,100125.11
2018-09-20T01:36:53.379Z,100128.11
2018-09-20T01:39:21.024Z,100133.27
2018-09-20T01:41:48.726Z,100125.11
2018-09-20T01:44:16.361Z,100130.11
2018-09-20T01:46:43.921Z,100129.92
2018-09-20T01:49:11.539Z,100132.42
2018-09-20T01:51:39.187Z,100134.43
2018-09-20T01:54:06.867Z,100130.60
2018-09-20T01:56:34.475Z,100132.77
2018-09-20T01:59:02.117Z,100133.58
2018-09-20T02:01:29.728Z,100129.11
2018-09-20T02:03:57.378Z,100133.92
2018-09-20T02:06:25.231Z,100143.55
2018-09-20T02:08:52.906Z,100136.41
2018-09-20T02:11:20.622Z,100136.93
2018-09-20T02:13:48.295Z,100137.75
2018-09-20T02:16:15.927Z,100141.57
2018-09-20T02:18:43.538Z,100135.09
2018-09-20T02:21:11.156Z,100136.58
2018-09-20T02:23:38.758Z,100141.41
2018-09-20T02:26:06.425Z,100129.28
2018-09-20T02:28:40.919Z,100130.92
2018-09-20T02:31:08.573Z,100143.23
2018-09-20T02:33:36.225Z,100138.08
2018-09-20T02:36:03.975Z,100143.56
2018-09-20T02:38:31.681Z,100136.75
2018-09-20T02:40:59.353Z,100142.06
2018-09-20T02:43:27.045Z,100142.20
2018-09-20T02:45:54.719Z,100145.70
2018-09-20T02:48:22.694Z,100150.83
2018-09-20T02:50:50.363Z,100143.20
2018-09-20T02:53:17.952Z,100141.20
2018-09-20T02:55:45.723Z,100144.53
2018-09-20T02:58:13.373Z,100141.69
2018-09-20T03:00:41.037Z,100139.54
2018-09-20T03:03:08.752Z,100151.59
2018-09-20T03:05:36.357Z,100151.80
2018-09-20T03:08:04.024Z,100152.14
2018-09-20T03:10:31.651Z,100148.25
2018-09-20T03:12:59.274Z,100144.58
2018-09-20T03:15:26.988Z,100152.54
2018-09-20T03:17:54.613Z,100147.03
2018-09-20T03:20:22.244Z,100151.33
2018-09-20T03:22:49.904Z,100149.50
2018-09-20T03:25:17.576Z,100150.34
2018-09-20T03:27:45.196Z,100145.33
2018-09-20T03:30:12.879Z,100149.80
2018-09-20T03:32:40.509Z,100150.94
2018-09-20T03:35:08.170Z,100147.64
2018-09-20T03:37:35.788Z,100147.49
2018-09-20T03:40:03.688Z,100146.80
2018-09-20T03:42:31.301Z,100147.59
2018-09-20T03:44:58.951Z,100148.75
2018-09-20T03:47:26.649Z,100150.57
2018-09-20T03:49:54.301Z,100153.53
2018-09-20T03:52:21.874Z,100152.35
2018-09-20T03:54:49.527Z,100147.72
2018-09-20T03:57:17.196Z,100148.21
2018-09-20T03:59:44.898Z,100150.73
2018-09-20T04:02:12.504Z,100150.19
2018-09-20T04:04:40.104Z,100145.22
2018-09-20T04:07:07.766Z,100147.66
2018-09-20T04:09:35.442Z,100148.21
2018-09-20T04:12:03.190Z,100152.53
2018-09-20T04:14:30.863Z,100153.86
2018-09-20T04:16:58.560Z,100155.14
2018-09-20T04:19:26.170Z,100154.80
2018-09-20T04:21:53.770Z,100157.94
2018-09-20T04:24:21.406Z,100153.81
2018-09-20T04:26:49.146Z,100153.31
2018-09-20T04:29:16.895Z,100112.17
2018-09-20T04:31:44.716Z,100156.32
2018-09-20T04:34:12.491Z,100153.80
2018-09-20T04:36:40.160Z,100154.09
2018-09-20T04:39:09.173Z,100148.45
2018-09-20T04:41:36.862Z,100154.80
2018-09-20T04:44:04.574Z,100156.47
2018-09-20T04:46:32.223Z,100157.95
2018-09-20T04:48:59.816Z,100155.48
2018-09-20T04:51:27.486Z,100164.62
2018-09-20T04:53:55.176Z,100175.16
2018-09-20T04:56:22.880Z,100178.02
2018-09-20T04:58:50.542Z,100182.84
2018-09-20T05:01:18.268Z,100185.50
2018-09-20T05:03:46.134Z,100188.64
2018-09-20T05:06:14.002Z,100191.28
2018-09-20T05:08:41.801Z,100198.92
2018-09-20T05:11:09.612Z,100193.16
2018-09-20T05:13:37.252Z,100190.84
2018-09-20T05:16:05.029Z,100199.95
2018-09-20T05:18:32.737Z,100197.80
2018-09-20T05:21:00.449Z,100205.12
2018-09-20T05:23:28.128Z,100204.33
2018-09-20T05:25:55.798Z,100201.52
2018-09-20T05:28:23.410Z,100200.53
2018-09-20T05:30:51.029Z,100202.86
2018-09-20T05:33:18.629Z,100191.05
2018-09-20T05:35:46.350Z,100204.25
2018-09-20T05:38:14.034Z,100208.12
2018-09-20T05:40:41.667Z,100201.02
2018-09-20T05:43:09.282Z,100196.22
2018-09-20T05:45:37.078Z,100203.05
2018-09-20T05:48:05.112Z,100197.05
2018-09-20T05:50:32.998Z,100196.39
2018-09-20T05:53:00.652Z,100202.05
2018-09-20T05:55:28.248Z,100202.23
2018-09-20T05:57:56.066Z,100200.41
2018-09-20T06:00:23.758Z,100200.45
2018-09-20T06:02:51.408Z,100208.06
2018-09-20T06:05:19.030Z,100208.41
2018-09-20T06:07:46.802Z,100207.55
2018-09-20T06:10:14.571Z,100204.89
2018-09-20T06:12:42.303Z,100203.19
2018-09-20T06:15:09.956Z,100203.13
2018-09-20T06:17:37.609Z,100204.45
2018-09-20T06:20:05.298Z,100206.34
2018-09-20T06:22:33.127Z,100210.70
2018-09-20T06:25:00.810Z,100201.59
2018-09-20T06:27:28.583Z,100204.53
2018-09-20T06:29:56.176Z,100204.44
2018-09-20T06:32:23.931Z,100211.13
2018-09-20T06:34:51.633Z,100218.25
2018-09-20T06:37:19.364Z,100220.03
2018-09-20T06:39:46.965Z,100221.27
2018-09-20T06:42:14.639Z,100222.77
2018-09-20T06:44:42.246Z,100217.98
2018-09-20T06:47:09.964Z,100219.92
2018-09-20T06:49:37.567Z,100219.70
2018-09-20T06:52:05.267Z,100218.28
2018-09-20T06:54:32.975Z,100216.80
2018-09-20T06:57:00.630Z,100214.41
2018-09-20T06:59:28.329Z,100214.59
2018-09-20T07:01:55.915Z,100213.13
2018-09-20T07:04:23.536Z,100217.23
2018-09-20T07:06:51.312Z,100221.27
2018-09-20T07:09:19.013Z,100219.41
2018-09-20T07:12:01.047Z,100219.14
2018-09-20T07:14:28.906Z,100228.53
2018-09-20T07:16:56.537Z,100221.30
2018-09-20T07:19:24.205Z,100223.36
2018-09-20T07:21:51.870Z,100228.11
2018-09-20T07:24:19.624Z,100226.27
2018-09-20T07:26:47.337Z,100229.81
2018-09-20T07:29:14.922Z,100228.10
2018-09-20T07:31:42.574Z,100227.11
2018-09-20T07:34:10.242Z,100231.16
2018-09-20T07:36:37.950Z,100232.50
2018-09-20T07:39:07.776Z,100236.27
2018-09-20T07:41:35.630Z,100232.50
2018-09-20T07:44:03.266Z,100233.03
2018-09-20T07:46:30.938Z,100232.83
2018-09-20T07:48:58.654Z,100231.16
2018-09-20T07:51:26.407Z,100227.14
2018-09-20T07:53:53.998Z,100227.00
2018-09-20T07:56:21.588Z,100227.83
2018-09-20T07:58:49.253Z,100222.14
2018-09-20T08:01:16.895Z,100230.06
2018-09-20T08:03:44.609Z,100224.69
2018-09-20T08:06:12.273Z,100223.47
2018-09-20T08:08:39.849Z,100223.95
2018-09-20T08:11:07.493Z,100224.38
2018-09-20T08:13:35.167Z,100222.05
2018-09-20T08:16:02.775Z,100223.14
2018-09-20T08:18:30.494Z,100215.97
2018-09-20T08:20:58.151Z,100216.10
2018-09-20T08:23:25.789Z,100209.48
2018-09-20T08:25:53.418Z,100209.74
2018-09-20T08:28:21.007Z,100207.84
2018-09-20T08:30:48.719Z,100208.88
2018-09-20T08:33:16.344Z,100205.97
2018-09-20T08:35:44.050Z,100204.22
2018-09-20T08:38:11.740Z,100205.77
2018-09-20T08:40:39.372Z,100204.73
2018-09-20T08:43:07.015Z,100204.69
2018-09-20T08:45:34.678Z,100207.52
2018-09-20T08:48:02.327Z,100209.30
2018-09-20T08:50:29.958Z,100201.72
2018-09-20T08:52:57.573Z,100192.59
2018-09-20T08:55:25.158Z,100200.91
2018-09-20T08:57:55.436Z,100195.20
2018-09-20T09:00:23.402Z,100190.88
2018-09-20T09:02:51.129Z,100192.54
2018-09-20T09:05:18.846Z,100197.43
2018-09-20T09:07:46.715Z,100193.27
2018-09-20T09:10:14.458Z,100198.66
2018-09-20T09:12:42.234Z,100195.17
2018-09-20T09:15:09.953Z,100186.92
2018-09-20T09:17:37.604Z,100184.62
2018-09-20T09:20:05.280Z,100187.70
2018-09-20T09:22:33.062Z,100176.75
2018-09-20T09:25:00.802Z,100173.80
2018-09-20T09:27:28.418Z,100177.47
2018-09-20T09:29:56.027Z,100176.16
2018-09-20T09:32:23.641Z,100173.41
2018-09-20T09:34:51.374Z,100157.31
2018-09-20T09:37:19.025Z,100161.77
2018-09-20T09:39:47.507Z,100171.75
2018-09-20T09:42:15.161Z,100167.71
2018-09-20T09:44:42.830Z,100156.41
2018-09-20T09:47:10.616Z,100153.25
2018-09-20T09:49:38.341Z,100148.87
2018-09-20T09:52:05.974Z,100139.48
2018-09-20T09:54:33.708Z,100134.95
2018-09-20T09:57:01.355Z,100138.59
2018-09-20T09:59:28.995Z,100133.16
2018-09-20T10:01:56.597Z,100128.84
2018-09-20T10:04:24.243Z,100127.29
2018-09-20T10:06:51.923Z,100132.88
2018-09-20T10:09:19.602Z,100127.68
2018-09-20T10:11:47.302Z,100128.44
2018-09-20T10:14:14.918Z,100124.45
2018-09-20T10:16:42.550Z,100119.72
2018-09-20T10:19:10.368Z,100123.28
2018-09-20T10:21:37.978Z,100119.58
2018-09-20T10:24:05.630Z,100113.98
2018-09-20T10:26:33.256Z,100109.11
2018-09-20T10:29:00.882Z,100103.69
2018-09-20T10:31:28.554Z,100111.66
2018-09-20T10:33:56.260Z,100100.52
2018-09-20T10:36:23.937Z,100099.98
2018-09-20T10:38:52.731Z,100097.92
2018-09-20T10:41:20.386Z,100091.13
2018-09-20T10:43:48.046Z,100089.19
2018-09-20T10:46:15.658Z,100094.14
2018-09-20T10:48:43.294Z,100088.16
2018-09-20T10:51:11.238Z,100080.92
2018-09-20T10:53:38.930Z,100084.36
2018-09-20T10:56:06.834Z,100075.89
2018-09-20T10:58:34.496Z,100075.44
2018-09-20T11:01:02.174Z,100068.48
2018-09-20T11:03:29.919Z,100023.23
2018-09-20T11:05:57.612Z,100065.58
2018-09-20T11:08:25.269Z,100062.21
2018-09-20T11:10:52.970Z,100064.77
2018-09-20T11:13:20.654Z,100054.39
2018-09-20T11:15:48.344Z,100052.45
2018-09-20T11:18:16.039Z,100059.66
2018-09-20T11:20:43.702Z,100061.73
2018-09-20T11:23:11.437Z,100055.61
2018-09-20T11:25:39.150Z,100054.23
2018-09-20T11:28:06.858Z,100054.54
2018-09-20T11:30:34.461Z,100041.51
2018-09-20T11:33:02.576Z,100041.23
2018-09-20T11:35:30.248Z,100045.50
2018-09-20T11:37:57.901Z,100034.75
2018-09-20T11:40:25.577Z,100036.20
2018-09-20T11:42:53.259Z,100029.89
2018-09-20T11:45:20.929Z,100033.76
2018-09-20T11:47:48.593Z,100037.85
2018-09-20T11:50:16.290Z,100029.77
2018-09-20T11:52:43.849Z,100024.91
2018-09-20T11:55:11.467Z,100017.27
2018-09-20T11:57:39.213Z,100024.23
2018-09-20T12:00:07.075Z,100002.12
2018-09-20T12:02:34.771Z,100012.53
2018-09-20T12:05:02.445Z,100002.20
2018-09-20T12:07:30.209Z,100005.39
2018-09-20T12:09:57.950Z,100001.34
2018-09-20T12:12:25.645Z,99998.02
2018-09-20T12:14:53.377Z,100001.03
2018-09-20T12:17:21.190Z,99995.80
2018-09-20T12:19:48.912Z,99991.66
2018-09-20T12:22:16.578Z,99981.41
2018-09-20T12:24:44.203Z,99990.61
2018-09-20T12:27:11.830Z,99982.92
2018-09-20T12:29:39.492Z,99980.09
2018-09-20T12:32:07.210Z,99978.73
2018-09-20T12:34:35.944Z,99975.55
2018-09-20T12:37:03.586Z,99970.03
2018-09-20T12:39:31.252Z,99967.04
2018-09-20T12:41:58.920Z,99961.81
2018-09-20T12:44:26.593Z,99959.28
2018-09-20T12:46:54.402Z,99946.30
2018-09-20T12:49:22.129Z,99960.81
2018-09-20T12:51:49.817Z,99953.97
2018-09-20T12:54:17.550Z,99955.80
2018-09-20T12:56:47.302Z,99944.18
2018-09-20T12:59:15.090Z,99951.52
2018-09-20T13:01:44.976Z,99947.15
2018-09-20T13:04:12.755Z,99946.58
2018-09-20T13:06:41.536Z,99940.96
2018-09-20T13:09:10.150Z,99943.77
2018-09-20T13:11:38.726Z,99947.91
2018-09-20T13:14:07.770Z,99940.90
2018-09-20T13:16:35.502Z,99938.78
2018-09-20T13:19:03.549Z,99935.51
2018-09-20T13:21:31.232Z,99935.32
2018-09-20T13:23:58.935Z,99932.34
2018-09-20T13:26:26.622Z,99930.54
2018-09-20T13:28:54.402Z,99935.41
2018-09-20T13:31:22.180Z,99929.20
2018-09-20T13:33:49.888Z,99934.67
2018-09-20T13:36:17.512Z,99918.72
2018-09-20T13:38:45.262Z,99913.16
2018-09-20T13:41:12.916Z,99913.42
2018-09-20T13:43:40.787Z,99920.31
2018-09-20T13:46:08.605Z,99902.84
2018-09-20T13:48:36.353Z,99904.13
2018-09-20T13:51:04.976Z,99908.50
2018-09-20T13:53:32.612Z,99910.10
2018-09-20T13:56:00.325Z,99901.26
2018-09-20T13:58:28.014Z,99886.86
2018-09-20T14:00:55.666Z,99889.33
2018-09-20T14:03:23.472Z,99897.03
2018-09-20T14:05:51.166Z,99891.63
2018-09-20T14:23:30.829Z,99873.48
2018-09-20T14:25:58.549Z,99874.11
2018-09-20T14:28:26.220Z,99873.52
2018-09-20T14:30:53.951Z,99879.98
2018-09-20T14:33:21.682Z,99874.69
2018-09-20T14:35:49.371Z,99871.69
2018-09-20T14:38:17.063Z,99859.23
2018-09-20T14:40:44.737Z,99862.64
2018-09-20T14:43:12.734Z,99859.50
2018-09-20T14:45:40.449Z,99859.77
2018-09-20T14:48:08.260Z,99865.05
2018-09-20T14:50:35.972Z,99850.91
2018-09-20T14:53:08.255Z,99854.02
2018-09-20T14:55:35.919Z,99849.86
2018-09-20T14:58:03.583Z,99855.74
2018-09-20T15:00:31.200Z,99866.42
2018-09-20T15:02:58.864Z,99855.29
2018-09-20T15:05:32.535Z,99851.41
2018-09-20T15:08:00.275Z,99861.37
2018-09-20T15:10:28.003Z,99853.34
2018-09-20T15:13:02.161Z,99856.89
2018-09-20T15:15:30.268Z,99852.93
2018-09-20T15:17:58.107Z,99854.13
2018-09-20T15:20:25.905Z,99853.48
2018-09-20T15:22:54.824Z,99856.47
2018-09-20T15:25:23.223Z,99858.06
2018-09-20T15:27:51.140Z,99857.45
2018-09-20T15:30:18.836Z,99854.70
2018-09-20T15:32:46.630Z,99861.39
2018-09-20T15:35:14.365Z,99852.89
2018-09-20T15:37:42.134Z,99852.88
2018-09-20T15:40:16.887Z,99851.56
2018-09-20T15:42:44.723Z,99853.59
2018-09-20T15:45:12.648Z,99862.32
2018-09-20T15:47:40.451Z,99851.63
2018-09-20T15:50:08.216Z,99846.59
2018-09-20T15:52:36.064Z,99846.09
2018-09-20T15:55:03.832Z,99845.58
2018-09-20T15:57:31.654Z,99837.43
2018-09-20T15:59:59.527Z,99837.42
2018-09-20T16:02:27.296Z,99835.25
2018-09-20T16:04:54.956Z,99838.89
2018-09-20T16:07:22.675Z,99838.27
2018-09-20T16:09:50.472Z,99829.70
2018-09-20T16:12:18.366Z,99833.13
2018-09-20T16:14:46.124Z,99826.48
2018-09-20T16:17:13.839Z,99828.89
2018-09-20T16:19:41.657Z,99820.96
2018-09-20T16:22:09.338Z,99820.27
2018-09-20T16:24:37.104Z,99816.95
2018-09-20T16:27:04.906Z,99817.27
2018-09-20T16:29:53.291Z,99815.77
2018-09-20T16:32:42.381Z,99811.48
2018-09-20T16:35:26.234Z,99812.30
2018-09-20T16:38:41.845Z,99815.75
2018-09-20T16:41:14.254Z,99807.81
2018-09-20T16:43:42.012Z,99809.63
2018-09-20T16:46:09.799Z,99809.13
2018-09-20T16:48:37.540Z,99812.44
2018-09-20T16:51:05.451Z,99811.92
2018-09-20T16:53:33.301Z,99814.36
2018-09-20T16:56:01.022Z,99808.84
2018-09-20T16:58:28.778Z,99807.88
2018-09-20T17:00:56.484Z,99804.26
2018-09-20T17:03:24.289Z,99804.30
2018-09-20T17:05:52.134Z,99801.11
2018-09-20T17:08:24.319Z,99801.41
2018-09-20T17:10:52.911Z,99810.03
2018-09-20T17:13:21.021Z,99809.94
2018-09-20T17:15:48.721Z,99811.25
2018-09-20T17:18:16.652Z,99806.78
2018-09-20T17:20:46.543Z,99808.73
2018-09-20T17:23:14.280Z,99807.18
2018-09-20T17:25:42.015Z,99805.60
2018-09-20T17:28:09.769Z,99804.01
2018-09-20T17:30:37.419Z,99801.02
2018-09-20T17:33:05.243Z,99800.48
2018-09-20T17:35:33.702Z,99803.77
2018-09-20T17:38:02.457Z,99803.33
2018-09-20T17:40:31.421Z,99807.27
2018-09-20T17:43:01.782Z,99807.66
2018-09-20T17:45:29.644Z,99806.32
2018-09-20T17:47:57.363Z,99804.47
2018-09-20T17:50:25.088Z,99798.48
2018-09-20T17:52:53.695Z,99800.05
2018-09-20T17:55:21.797Z,99796.59
2018-09-20T17:57:50.675Z,99801.47
2018-09-20T18:00:21.379Z,99800.98
2018-09-20T18:02:49.003Z,99800.72
2018-09-20T18:05:20.406Z,99802.57
2018-09-20T18:07:48.177Z,99797.34
2018-09-20T18:10:16.112Z,99802.31
2018-09-20T18:12:44.340Z,99811.13
2018-09-20T18:15:12.090Z,99808.39
2018-09-20T18:17:39.918Z,99808.42
2018-09-20T18:20:07.768Z,99801.34
2018-09-20T18:22:35.824Z,99812.59
2018-09-20T18:25:03.602Z,99806.75
2018-09-20T18:27:31.504Z,99808.20
2018-09-20T18:29:59.579Z,99808.81
2018-09-20T18:32:27.570Z,99814.84
2018-09-20T18:34:55.426Z,99804.62
2018-09-20T18:37:23.347Z,99803.89
2018-09-20T18:39:51.099Z,99806.38
2018-09-20T18:42:18.938Z,99807.89
2018-09-20T18:44:46.735Z,99808.05
2018-09-20T18:47:14.537Z,99805.56
2018-09-20T18:49:42.518Z,99821.08
2018-09-20T18:52:10.477Z,99812.09
2018-09-20T18:54:38.539Z,99811.09
2018-09-20T18:57:06.507Z,99812.45
2018-09-20T18:59:34.619Z,99811.52
2018-09-20T19:02:02.451Z,99816.70
2018-09-20T19:04:30.491Z,99814.17
2018-09-20T19:06:58.192Z,99816.95
2018-09-20T19:09:26.081Z,99810.02
2018-09-20T19:11:53.821Z,99810.34
2018-09-20T19:14:21.631Z,99811.61
2018-09-20T19:16:49.652Z,99798.34
2018-09-20T19:19:17.625Z,99808.22
2018-09-20T19:21:45.600Z,99806.06
2018-09-20T19:24:13.390Z,99798.55
2018-09-20T19:26:41.304Z,99796.50
2018-09-20T19:29:09.245Z,99797.02
2018-09-20T19:31:37.029Z,99796.78
2018-09-20T19:34:04.927Z,99798.95
2018-09-20T19:36:32.965Z,99797.84
2018-09-20T19:39:00.795Z,99799.27
2018-09-20T19:41:28.851Z,99798.05
2018-09-20T19:43:56.993Z,99800.73
2018-09-20T19:46:24.834Z,99790.95
2018-09-20T19:48:52.663Z,99794.34
2018-09-20T19:51:20.691Z,99787.14
2018-09-20T19:53:48.455Z,99789.39
2018-09-20T19:56:16.175Z,99789.62
2018-09-20T19:59:12.900Z,99793.09
2018-09-20T20:01:41.201Z,99785.88
2018-09-20T20:04:08.910Z,99788.36
2018-09-20T20:06:36.705Z,99783.00
2018-09-20T20:09:08.743Z,99782.06
2018-09-20T20:11:36.916Z,99775.67
2018-09-20T20:14:04.760Z,99779.98
2018-09-20T20:16:32.506Z,99780.29
2018-09-20T20:19:07.514Z,99775.13
2018-09-20T20:21:35.445Z,99772.37
2018-09-20T20:24:03.261Z,99775.56
2018-09-20T20:26:31.053Z,99774.45
2018-09-20T20:28:58.937Z,99777.53
2018-09-20T20:31:26.713Z,99777.72
2018-09-20T20:33:55.041Z,99776.58
2018-09-20T20:36:22.937Z,99781.34
2018-09-20T20:38:51.010Z,99770.63
2018-09-20T20:41:18.888Z,99780.52
2018-09-20T20:43:46.662Z,99775.46
2018-09-20T20:46:14.946Z,99769.48
2018-09-20T20:48:42.904Z,99772.15
2018-09-20T20:51:10.677Z,99764.00
2018-09-20T20:53:38.441Z,99771.00
2018-09-20T20:56:06.166Z,99769.58
2018-09-20T20:58:33.933Z,99767.41
2018-09-20T21:01:01.738Z,99770.17
2018-09-20T21:03:29.578Z,99766.38
2018-09-20T21:05:57.396Z,99771.10
2018-09-20T21:08:25.390Z,99765.22
2018-09-20T21:10:53.128Z,99764.27
2018-09-20T21:13:20.838Z,99773.77
2018-09-20T21:15:48.815Z,99765.91
2018-09-20T21:18:16.591Z,99768.08
2018-09-20T21:20:44.341Z,99763.61
2018-09-20T21:23:12.142Z,99756.92
2018-09-20T21:25:39.807Z,99757.94
2018-09-20T21:28:07.429Z,99760.42
2018-09-20T21:30:35.130Z,99753.73
2018-09-20T21:33:02.884Z,99755.70
2018-09-20T21:35:30.587Z,99751.78
2018-09-20T21:37:58.212Z,99748.19
2018-09-20T21:40:25.969Z,99746.42
2018-09-20T21:42:53.995Z,99740.37
2018-09-20T21:45:22.079Z,99740.37
2018-09-20T21:47:49.734Z,99733.36
2018-09-20T21:50:17.517Z,99734.39
2018-09-20T21:52:45.164Z,99681.02
2018-09-20T21:55:13.014Z,99740.23
2018-09-20T21:57:40.809Z,99737.98
2018-09-20T22:00:08.743Z,99733.83
2018-09-20T22:02:42.497Z,99727.34
2018-09-20T22:05:10.287Z,99718.77
2018-09-20T22:07:37.943Z,99709.95
2018-09-20T22:10:05.735Z,99711.27
2018-09-20T22:12:33.467Z,99710.86
2018-09-20T22:15:01.165Z,99713.97
2018-09-20T22:17:29.049Z,99714.31
2018-09-20T22:19:56.758Z,99710.13
2018-09-20T22:22:24.499Z,99717.31
2018-09-20T22:24:52.347Z,99713.76
2018-09-20T22:27:20.116Z,99713.91
2018-09-20T22:29:48.033Z,99710.29
2018-09-20T22:32:15.767Z,99707.50
2018-09-20T22:34:43.389Z,99704.96
2018-09-20T22:37:11.118Z,99704.70
2018-09-20T22:39:39.147Z,99703.20
2018-09-20T22:42:06.796Z,99697.34
2018-09-20T22:44:34.782Z,99695.14
2018-09-20T22:47:02.404Z,99693.67
2018-09-20T22:49:30.274Z,99688.42
2018-09-20T22:51:57.913Z,99691.20
2018-09-20T22:54:25.529Z,99689.79
2018-09-20T22:56:53.290Z,99689.92
2018-09-20T22:59:21.004Z,99687.80
2018-09-20T23:01:48.668Z,99686.03
2018-09-20T23:04:16.662Z,99682.21
2018-09-20T23:06:44.293Z,99687.61
2018-09-20T23:09:11.940Z,99681.37
2018-09-20T23:11:40.263Z,99681.55
2018-09-20T23:14:07.943Z,99688.78
2018-09-20T23:16:35.637Z,99690.17
2018-09-20T23:19:03.332Z,99681.88
2018-09-20T23:21:30.979Z,99680.02
2018-09-20T23:23:58.608Z,99682.75
2018-09-20T23:26:26.327Z,99675.73
2018-09-20T23:28:53.955Z,99674.63
2018-09-20T23:31:21.630Z,99671.82
2018-09-20T23:33:49.327Z,99665.07
2018-09-20T23:36:16.937Z,99664.69
2018-09-20T23:38:44.688Z,99665.19
2018-09-20T23:41:12.351Z,99662.43
2018-09-20T23:43:40.035Z,99660.63
2018-09-20T23:46:07.715Z,99654.67
2018-09-20T23:48:35.443Z,99654.85
2018-09-20T23:51:03.123Z,99657.74
2018-09-20T23:53:30.803Z,99647.72
2018-09-20T23:55:58.707Z,99646.62
2018-09-20T23:58:26.357Z,99645.70
